Stallings, North Carolina
Current Conditions -  °F | °C
As of 12:53 PM on Saturday 20 Dec 2014 (Local Time) from KEQY Reporting Station
Overcast Overcast  
Wind Chill: 39°   Ceiling: 2800
Heat Index: 43°   Visibility: 10mi
Dew Point: 36°   Wind: 6mph
Humidity: 76%   Direction: 40°NE
Pressure: 30.21"   Gusts: NA
Location:  35.082°N, 80.6782°W
Report Text: KEQY 201753Z AUTO 04005KT 10SM OVC028 06/02 A3021 RMK AO2 SLP248 60001 T00610022 10061 20039 58015
Loading
Personal Weather Stations






























Interactive Weather Map New forecast layout! Learn more

10-Day Weather Forecast

Advertisements
Track Severe Weather on mobile